Time;durP1;ratioP1;P1;durP2;ratioP2;P2;SDS_P1;SDS_P2;PMS_P1;PMS_P2;Temp;Humidity;BMP_temperature;BMP_pressure;BME280_temperature;BME280_humidity;BME280_pressure;Samples;Min_cycle;Max_cycle;Signal;HPM_P1;HPM_P2
2022/01/21 00:01:08;;;;;;;7.70;3.40;;;;;;;;;;5013763;28;20968;-60
2022/01/21 00:03:35;;;;;;;6.40;4.00;;;;;;;;;;5013854;28;20391;-59
2022/01/21 00:06:01;;;;;;;7.10;4.00;;;;;;;;;;5013480;28;20435;-57
2022/01/21 00:08:27;;;;;;;9.60;3.93;;;;;;;;;;5013693;28;20821;-60
2022/01/21 00:10:53;;;;;;;8.37;3.97;;;;;;;;;;5013465;28;20400;-59
2022/01/21 00:13:33;;;;;;;6.10;3.40;;;;;;;;;;5013477;28;20897;-59
2022/01/21 00:15:59;;;;;;;8.03;3.50;;;;;;;;;;5013447;28;20869;-59
2022/01/21 00:18:25;;;;;;;7.37;3.10;;;;;;;;;;5013586;28;20499;-59
2022/01/21 00:31:50;;;;;;;4.47;3.73;;;;;;;;;;5013010;28;20907;-59
2022/01/21 00:34:16;;;;;;;6.90;3.60;;;;;;;;;;5013085;28;20400;-60
2022/01/21 00:36:42;;;;;;;5.50;3.60;;;;;;;;;;5013347;28;20427;-60
2022/01/21 00:39:08;;;;;;;6.03;4.00;;;;;;;;;;5012992;28;20411;-59
2022/01/21 00:41:40;;;;;;;9.03;3.30;;;;;;;;;;5013058;28;20415;-60
2022/01/21 00:44:06;;;;;;;9.70;3.70;;;;;;;;;;5028112;28;20864;-59
2022/01/21 00:46:32;;;;;;;8.63;3.47;;;;;;;;;;5012952;28;20458;-59
2022/01/21 00:48:58;;;;;;;8.07;4.47;;;;;;;;;;5013187;28;20478;-54
2022/01/21 00:51:24;;;;;;;5.83;3.20;;;;;;;;;;5015632;28;20399;-58
2022/01/21 00:53:51;;;;;;;4.93;3.33;;;;;;;;;;5016455;28;20463;-58
2022/01/21 00:56:17;;;;;;;11.50;6.03;;;;;;;;;;5016349;28;20411;-59
2022/01/21 00:58:43;;;;;;;9.63;4.00;;;;;;;;;;5068966;23;20493;-81
2022/01/21 01:01:09;;;;;;;11.37;4.20;;;;;;;;;;5083062;28;20914;-81
2022/01/21 01:03:35;;;;;;;6.77;3.73;;;;;;;;;;5069616;28;20492;-82
2022/01/21 01:06:01;;;;;;;12.40;3.93;;;;;;;;;;5069792;28;20406;-82
2022/01/21 01:08:27;;;;;;;12.53;4.23;;;;;;;;;;5069632;28;20423;-82
2022/01/21 01:21:22;;;;;;;7.17;3.50;;;;;;;;;;5036151;28;20478;-61
2022/01/21 01:29:02;;;;;;;10.43;4.50;;;;;;;;;;5055948;28;20381;-58
2022/01/21 01:31:28;;;;;;;19.13;5.23;;;;;;;;;;5070961;28;20398;-58
2022/01/21 01:33:58;;;;;;;7.17;4.40;;;;;;;;;;5055360;28;20428;-56
2022/01/21 01:36:24;;;;;;;14.70;4.90;;;;;;;;;;5055269;28;20417;-54
2022/01/21 01:41:31;;;;;;;6.70;4.00;;;;;;;;;;5055474;28;20382;-58
2022/01/21 01:49:33;;;;;;;5.53;3.80;;;;;;;;;;5055302;28;20889;-55
2022/01/21 01:52:00;;;;;;;7.70;3.37;;;;;;;;;;5055407;28;20383;-59
2022/01/21 01:54:27;;;;;;;9.23;4.20;;;;;;;;;;5055012;28;20488;-59
2022/01/21 01:56:55;;;;;;;8.90;4.50;;;;;;;;;;5053621;28;20425;-59
2022/01/21 01:59:21;;;;;;;11.33;4.43;;;;;;;;;;5054905;28;20484;-58
2022/01/21 02:01:58;;;;;;;11.47;4.60;;;;;;;;;;5054055;28;20747;-59
2022/01/21 02:04:25;;;;;;;5.10;3.50;;;;;;;;;;5054828;28;20765;-59
2022/01/21 02:06:51;;;;;;;10.87;4.20;;;;;;;;;;5054563;28;20448;-59
2022/01/21 02:09:17;;;;;;;6.87;4.10;;;;;;;;;;5055059;28;20771;-59
2022/01/21 02:11:44;;;;;;;8.13;3.40;;;;;;;;;;5055001;28;20515;-58
2022/01/21 02:14:11;;;;;;;12.33;4.43;;;;;;;;;;5054600;28;20436;-56
2022/01/21 02:17:05;;;;;;;9.33;3.57;;;;;;;;;;5054833;28;20429;-58
2022/01/21 02:22:13;;;;;;;13.00;5.13;;;;;;;;;;5054682;28;20385;-57
2022/01/21 02:24:58;;;;;;;8.23;4.17;;;;;;;;;;5054403;28;20410;-55
2022/01/21 02:27:24;;;;;;;13.90;4.90;;;;;;;;;;5054289;28;20465;-57
2022/01/21 02:30:00;;;;;;;11.60;4.70;;;;;;;;;;5054516;28;20394;-57
2022/01/21 02:32:26;;;;;;;7.50;3.47;;;;;;;;;;5054686;28;20386;-55
2022/01/21 02:34:52;;;;;;;6.80;3.80;;;;;;;;;;5054291;28;20408;-53
2022/01/21 02:37:20;;;;;;;6.40;3.50;;;;;;;;;;5054505;28;20583;-59
2022/01/21 02:39:46;;;;;;;6.80;3.70;;;;;;;;;;5050452;28;20539;-55
2022/01/21 02:42:12;;;;;;;9.03;4.40;;;;;;;;;;5045203;28;20412;-56
2022/01/21 02:44:39;;;;;;;8.60;4.63;;;;;;;;;;5054150;28;20476;-59
2022/01/21 02:47:05;;;;;;;8.43;4.50;;;;;;;;;;5053895;28;20457;-58
2022/01/21 02:49:32;;;;;;;6.30;3.27;;;;;;;;;;5054280;28;20429;-54
2022/01/21 02:52:02;;;;;;;9.17;4.37;;;;;;;;;;5054032;28;20401;-55
2022/01/21 02:54:33;;;;;;;7.80;4.03;;;;;;;;;;5053656;28;20505;-54
2022/01/21 02:57:00;;;;;;;6.00;3.17;;;;;;;;;;5053570;28;20448;-54
2022/01/21 02:59:27;;;;;;;11.30;3.53;;;;;;;;;;5053610;28;20412;-57
2022/01/21 03:01:53;;;;;;;10.20;4.47;;;;;;;;;;5053740;28;20405;-58
2022/01/21 03:04:30;;;;;;;6.53;3.17;;;;;;;;;;5054529;28;20402;-59
2022/01/21 03:06:56;;;;;;;15.10;3.83;;;;;;;;;;5053502;28;20457;-55
2022/01/21 03:09:22;;;;;;;7.07;4.17;;;;;;;;;;5053744;28;20406;-55
2022/01/21 03:11:48;;;;;;;13.43;4.50;;;;;;;;;;5053630;28;20746;-57
2022/01/21 03:14:14;;;;;;;10.30;3.40;;;;;;;;;;5053069;28;20402;-54
2022/01/21 03:16:40;;;;;;;10.80;4.83;;;;;;;;;;5053366;28;20426;-56
2022/01/21 03:19:06;;;;;;;4.50;3.40;;;;;;;;;;5053600;28;20424;-53
2022/01/21 03:21:32;;;;;;;18.80;4.83;;;;;;;;;;5053505;28;20440;-56
2022/01/21 03:23:58;;;;;;;8.20;4.40;;;;;;;;;;5053393;28;20409;-54
2022/01/21 03:26:26;;;;;;;7.70;3.60;;;;;;;;;;5053201;28;20469;-54
2022/01/21 03:28:53;;;;;;;6.30;3.50;;;;;;;;;;5053323;28;20412;-52
2022/01/21 03:31:19;;;;;;;5.00;3.20;;;;;;;;;;5053595;28;20421;-56
2022/01/21 03:33:46;;;;;;;10.23;4.07;;;;;;;;;;5053328;28;20402;-53
2022/01/21 03:36:12;;;;;;;7.90;4.37;;;;;;;;;;5053184;28;20421;-53
2022/01/21 03:38:38;;;;;;;7.40;3.90;;;;;;;;;;5053363;28;20397;-53
2022/01/21 03:41:05;;;;;;;8.50;3.47;;;;;;;;;;5053013;28;20393;-55
2022/01/21 03:43:31;;;;;;;6.90;4.13;;;;;;;;;;5053329;28;20393;-57
2022/01/21 03:45:58;;;;;;;6.77;4.17;;;;;;;;;;5052912;28;20433;-55
2022/01/21 03:48:24;;;;;;;6.73;4.23;;;;;;;;;;5053466;28;20824;-58
2022/01/21 03:50:50;;;;;;;9.57;3.43;;;;;;;;;;5053604;28;20494;-57
2022/01/21 03:53:17;;;;;;;9.37;4.33;;;;;;;;;;5052994;28;20394;-53
2022/01/21 03:55:43;;;;;;;13.40;4.80;;;;;;;;;;5053233;28;20906;-54
2022/01/21 03:58:10;;;;;;;6.90;4.00;;;;;;;;;;5052963;28;20443;-56
2022/01/21 04:00:38;;;;;;;11.07;3.97;;;;;;;;;;5053156;28;20409;-59
2022/01/21 04:03:04;;;;;;;6.30;4.30;;;;;;;;;;5052874;28;20402;-58
2022/01/21 04:05:30;;;;;;;11.27;4.10;;;;;;;;;;5052785;28;20409;-56
2022/01/21 04:07:56;;;;;;;7.87;4.43;;;;;;;;;;5052926;28;20950;-57
2022/01/21 04:10:23;;;;;;;8.50;4.20;;;;;;;;;;5051615;28;20405;-59
2022/01/21 04:12:49;;;;;;;8.10;4.03;;;;;;;;;;5040084;28;20409;-57
2022/01/21 04:15:15;;;;;;;13.03;4.10;;;;;;;;;;5051706;28;20401;-57
2022/01/21 04:17:41;;;;;;;8.97;3.87;;;;;;;;;;5052856;28;20899;-59
2022/01/21 04:20:08;;;;;;;9.73;4.30;;;;;;;;;;5052717;28;20778;-59
2022/01/21 04:22:35;;;;;;;14.03;4.60;;;;;;;;;;5052668;28;20452;-58
2022/01/21 04:25:01;;;;;;;8.40;4.13;;;;;;;;;;5053105;28;20558;-60
2022/01/21 04:27:27;;;;;;;5.80;4.10;;;;;;;;;;5056289;28;20479;-57
2022/01/21 04:29:53;;;;;;;16.23;5.13;;;;;;;;;;5056795;28;20390;-55
2022/01/21 04:32:19;;;;;;;9.13;3.93;;;;;;;;;;5055265;28;20406;-57
2022/01/21 04:34:45;;;;;;;10.60;4.77;;;;;;;;;;5056362;28;20533;-57
2022/01/21 04:37:13;;;;;;;10.13;5.73;;;;;;;;;;5056253;28;20433;-57
2022/01/21 04:39:47;;;;;;;8.40;3.93;;;;;;;;;;5056718;28;20745;-59
2022/01/21 04:47:34;;;;;;;9.60;4.50;;;;;;;;;;5056127;28;20827;-53
2022/01/21 04:50:00;;;;;;;9.10;4.50;;;;;;;;;;5056058;28;20409;-56
2022/01/21 04:52:26;;;;;;;9.97;5.10;;;;;;;;;;5056010;28;20878;-55
2022/01/21 04:54:53;;;;;;;10.83;4.30;;;;;;;;;;5055980;28;20404;-53
2022/01/21 04:57:19;;;;;;;7.40;4.20;;;;;;;;;;5055961;28;20436;-55
2022/01/21 04:59:46;;;;;;;14.33;5.13;;;;;;;;;;5053592;28;20769;-52
2022/01/21 05:02:12;;;;;;;11.93;4.43;;;;;;;;;;5038619;28;20430;-58
2022/01/21 05:04:38;;;;;;;8.50;4.63;;;;;;;;;;5036001;28;20403;-58
2022/01/21 05:07:08;;;;;;;5.53;4.00;;;;;;;;;;5035998;28;20466;-52
2022/01/21 05:09:35;;;;;;;5.70;4.60;;;;;;;;;;5036094;28;20773;-56
2022/01/21 05:12:02;;;;;;;7.33;4.90;;;;;;;;;;5036160;28;20414;-53
2022/01/21 05:17:11;;;;;;;7.17;4.67;;;;;;;;;;5036124;28;20426;-58
2022/01/21 05:19:37;;;;;;;5.87;4.43;;;;;;;;;;5035731;28;20403;-58
2022/01/21 05:22:04;;;;;;;10.17;4.83;;;;;;;;;;5035774;28;20493;-57
2022/01/21 05:24:30;;;;;;;11.77;5.87;;;;;;;;;;5035795;28;20403;-57
2022/01/21 05:26:58;;;;;;;8.90;4.33;;;;;;;;;;5035420;28;20870;-56
2022/01/21 05:29:26;;;;;;;14.50;6.13;;;;;;;;;;5035879;28;20830;-55
2022/01/21 05:31:53;;;;;;;11.43;6.00;;;;;;;;;;5035554;28;20403;-55
2022/01/21 05:34:19;;;;;;;8.90;5.70;;;;;;;;;;5035472;28;20747;-56
2022/01/21 05:36:46;;;;;;;11.27;5.20;;;;;;;;;;5035228;28;20797;-58
2022/01/21 05:39:12;;;;;;;5.97;4.20;;;;;;;;;;5035861;28;20880;-54
2022/01/21 05:41:39;;;;;;;7.70;4.50;;;;;;;;;;5035635;28;20902;-55
2022/01/21 05:44:14;;;;;;;10.43;4.53;;;;;;;;;;5035735;28;20745;-56
2022/01/21 05:46:55;;;;;;;10.60;3.90;;;;;;;;;;5035586;28;20553;-53
2022/01/21 05:49:22;;;;;;;7.63;4.30;;;;;;;;;;5035556;28;20747;-53
2022/01/21 05:51:48;;;;;;;12.33;4.40;;;;;;;;;;5035166;28;20407;-57
2022/01/21 05:54:15;;;;;;;10.63;4.70;;;;;;;;;;5035208;28;20749;-57
2022/01/21 05:56:41;;;;;;;5.60;2.40;;;;;;;;;;5035399;28;20430;-54
2022/01/21 05:59:07;;;;;;;4.20;1.50;;;;;;;;;;5035126;28;20931;-56
2022/01/21 06:01:34;;;;;;;3.57;1.97;;;;;;;;;;5034945;28;20891;-55
2022/01/21 06:04:01;;;;;;;6.20;2.87;;;;;;;;;;5035128;28;20453;-57
2022/01/21 06:06:27;;;;;;;3.63;2.00;;;;;;;;;;5034751;28;20486;-57
2022/01/21 06:08:53;;;;;;;6.93;2.47;;;;;;;;;;5035140;28;20433;-54
2022/01/21 06:11:19;;;;;;;4.50;2.73;;;;;;;;;;5035380;28;20830;-59
2022/01/21 06:13:48;;;;;;;4.43;2.50;;;;;;;;;;5034893;28;20438;-56
2022/01/21 06:16:15;;;;;;;3.33;2.13;;;;;;;;;;5034896;28;20435;-57
2022/01/21 06:18:41;;;;;;;12.03;2.80;;;;;;;;;;5034730;28;20415;-56
2022/01/21 06:21:07;;;;;;;6.50;2.77;;;;;;;;;;5035317;28;20799;-58
2022/01/21 06:23:34;;;;;;;5.93;2.67;;;;;;;;;;5034857;28;20430;-59
2022/01/21 06:26:00;;;;;;;5.43;3.10;;;;;;;;;;5034306;28;20442;-57
2022/01/21 06:28:26;;;;;;;8.67;2.70;;;;;;;;;;5034604;28;20514;-55
2022/01/21 06:30:52;;;;;;;5.03;2.30;;;;;;;;;;5034284;28;20415;-57
2022/01/21 06:33:20;;;;;;;6.37;2.87;;;;;;;;;;5034790;28;20414;-56
2022/01/21 06:35:46;;;;;;;7.53;2.57;;;;;;;;;;5034264;28;20431;-57
2022/01/21 06:38:13;;;;;;;15.40;3.47;;;;;;;;;;5034208;28;20407;-57
2022/01/21 06:40:39;;;;;;;8.93;2.53;;;;;;;;;;5034198;28;20414;-56
2022/01/21 06:43:05;;;;;;;7.77;3.20;;;;;;;;;;5034362;28;20403;-57
2022/01/21 06:45:31;;;;;;;8.07;2.70;;;;;;;;;;5033995;28;20434;-58
2022/01/21 06:47:58;;;;;;;5.37;2.70;;;;;;;;;;5033347;28;20439;-57
2022/01/21 06:50:24;;;;;;;3.70;2.33;;;;;;;;;;5033979;28;20407;-57
2022/01/21 06:52:51;;;;;;;9.53;2.67;;;;;;;;;;5033747;28;20453;-57
2022/01/21 06:55:17;;;;;;;4.00;2.30;;;;;;;;;;5034242;28;20402;-57
2022/01/21 06:57:43;;;;;;;7.00;3.00;;;;;;;;;;5033853;28;20430;-53
2022/01/21 07:00:11;;;;;;;4.03;2.93;;;;;;;;;;5034067;28;20783;-58
2022/01/21 07:02:37;;;;;;;5.10;2.60;;;;;;;;;;5033984;28;20457;-57
2022/01/21 07:05:04;;;;;;;8.43;3.00;;;;;;;;;;5033667;28;20442;-56
2022/01/21 07:07:30;;;;;;;6.10;2.97;;;;;;;;;;5033598;28;20881;-56
2022/01/21 07:09:57;;;;;;;7.30;3.17;;;;;;;;;;5033592;28;20448;-56
2022/01/21 07:12:23;;;;;;;8.90;3.00;;;;;;;;;;5033731;28;20410;-58
2022/01/21 07:14:49;;;;;;;6.70;2.40;;;;;;;;;;5033510;28;20394;-55
2022/01/21 07:17:15;;;;;;;14.63;3.80;;;;;;;;;;5033738;28;20796;-59
2022/01/21 07:19:41;;;;;;;9.50;4.07;;;;;;;;;;5033862;28;20406;-59
2022/01/21 07:22:07;;;;;;;15.17;4.43;;;;;;;;;;5033486;28;20402;-57
2022/01/21 07:24:33;;;;;;;4.90;3.10;;;;;;;;;;5043216;28;20505;-66
2022/01/21 07:26:59;;;;;;;6.23;3.97;;;;;;;;;;5052331;28;20461;-55
2022/01/21 07:29:25;;;;;;;6.50;3.30;;;;;;;;;;5053342;28;20409;-55
2022/01/21 07:31:54;;;;;;;8.03;3.43;;;;;;;;;;5049579;28;20421;-69
2022/01/21 07:34:21;;;;;;;9.87;4.00;;;;;;;;;;5051033;28;20815;-67
2022/01/21 07:36:47;;;;;;;11.23;4.30;;;;;;;;;;5052120;28;20485;-62
2022/01/21 07:39:13;;;;;;;8.83;3.60;;;;;;;;;;5053046;28;20551;-67
2022/01/21 07:41:39;;;;;;;6.10;3.67;;;;;;;;;;5053256;28;20981;-68
2022/01/21 07:44:05;;;;;;;10.77;3.90;;;;;;;;;;5052951;28;20763;-68
2022/01/21 07:46:31;;;;;;;5.60;4.10;;;;;;;;;;5052837;28;20977;-67
2022/01/21 07:48:59;;;;;;;9.20;4.33;;;;;;;;;;5073357;28;20798;-71
2022/01/21 07:51:25;;;;;;;11.77;4.63;;;;;;;;;;5063710;28;20448;-71
2022/01/21 07:53:51;;;;;;;6.97;3.70;;;;;;;;;;5052999;28;20725;-69
2022/01/21 07:56:17;;;;;;;7.00;4.13;;;;;;;;;;5052667;28;20753;-67
2022/01/21 07:58:43;;;;;;;8.77;5.40;;;;;;;;;;5052855;28;20414;-68
2022/01/21 08:01:10;;;;;;;12.00;6.33;;;;;;;;;;5056621;28;20778;-68
2022/01/21 08:03:36;;;;;;;8.67;5.27;;;;;;;;;;5057092;28;20416;-69
2022/01/21 08:06:02;;;;;;;10.17;5.33;;;;;;;;;;5056837;28;20476;-68
2022/01/21 08:08:30;;;;;;;9.93;5.20;;;;;;;;;;5056980;28;20504;-68
2022/01/21 08:10:56;;;;;;;7.43;4.50;;;;;;;;;;5056753;28;20417;-67
2022/01/21 08:13:22;;;;;;;12.67;5.03;;;;;;;;;;5056483;28;20471;-69
2022/01/21 08:15:48;;;;;;;8.77;4.93;;;;;;;;;;5057109;28;20787;-67
2022/01/21 08:18:15;;;;;;;11.47;5.43;;;;;;;;;;5056646;28;20940;-68
2022/01/21 08:20:42;;;;;;;18.23;5.63;;;;;;;;;;5057103;28;20400;-68
2022/01/21 08:23:09;;;;;;;9.87;4.90;;;;;;;;;;5056693;28;20422;-69
2022/01/21 08:25:35;;;;;;;10.50;5.70;;;;;;;;;;5056707;28;20401;-69
2022/01/21 08:28:01;;;;;;;13.17;5.83;;;;;;;;;;5054601;28;20461;-66
2022/01/21 08:30:27;;;;;;;12.50;5.40;;;;;;;;;;5056765;28;20402;-67
2022/01/21 08:32:54;;;;;;;16.13;5.03;;;;;;;;;;5055116;28;20922;-69
2022/01/21 08:35:20;;;;;;;10.10;4.63;;;;;;;;;;5056850;28;20406;-67
2022/01/21 08:37:46;;;;;;;7.43;4.27;;;;;;;;;;5056179;28;20418;-67
2022/01/21 08:40:12;;;;;;;15.00;5.00;;;;;;;;;;5056447;28;20418;-66
2022/01/21 08:42:38;;;;;;;13.10;4.50;;;;;;;;;;5054964;28;20460;-70
2022/01/21 08:45:05;;;;;;;13.60;5.73;;;;;;;;;;5055285;28;20433;-67
2022/01/21 08:47:31;;;;;;;9.17;4.10;;;;;;;;;;5054970;28;20463;-67
2022/01/21 08:50:00;;;;;;;5.13;3.00;;;;;;;;;;5055966;28;20481;-66
2022/01/21 08:52:29;;;;;;;7.03;4.00;;;;;;;;;;5055214;28;20426;-66
2022/01/21 08:54:55;;;;;;;11.13;3.97;;;;;;;;;;5055482;28;20429;-70
2022/01/21 08:57:22;;;;;;;12.50;4.50;;;;;;;;;;5049202;28;20457;-66
2022/01/21 08:59:49;;;;;;;11.40;5.47;;;;;;;;;;5048883;28;20441;-66
2022/01/21 09:02:15;;;;;;;9.57;5.03;;;;;;;;;;5054167;28;20492;-69
2022/01/21 09:04:41;;;;;;;10.93;4.17;;;;;;;;;;5053979;28;20806;-70
2022/01/21 09:07:07;;;;;;;8.90;4.57;;;;;;;;;;5054976;28;20518;-70
2022/01/21 09:09:34;;;;;;;9.47;4.33;;;;;;;;;;5055193;28;20418;-66
2022/01/21 09:12:00;;;;;;;10.60;3.63;;;;;;;;;;5054711;28;20422;-67
2022/01/21 09:14:28;;;;;;;5.83;4.00;;;;;;;;;;5055441;28;20426;-66
2022/01/21 09:16:54;;;;;;;7.70;4.80;;;;;;;;;;5055252;28;20486;-66
2022/01/21 09:19:20;;;;;;;12.57;5.70;;;;;;;;;;5054613;28;20509;-67
2022/01/21 09:21:51;;;;;;;9.60;4.40;;;;;;;;;;5055255;28;20986;-62
2022/01/21 09:24:17;;;;;;;9.63;4.90;;;;;;;;;;5052744;28;20473;-57
2022/01/21 09:26:43;;;;;;;7.93;5.10;;;;;;;;;;5054019;28;20246;-56
2022/01/21 09:29:09;;;;;;;11.87;4.70;;;;;;;;;;5054006;28;20778;-53
2022/01/21 09:31:35;;;;;;;9.73;5.00;;;;;;;;;;5053442;28;20417;-58
2022/01/21 09:34:01;;;;;;;11.70;4.50;;;;;;;;;;5054842;28;20773;-73
2022/01/21 09:36:27;;;;;;;9.63;4.70;;;;;;;;;;5051840;28;20196;-68
2022/01/21 09:38:53;;;;;;;11.10;3.80;;;;;;;;;;5054633;28;20502;-67
2022/01/21 09:41:19;;;;;;;13.60;4.37;;;;;;;;;;5055402;28;20394;-67
2022/01/21 09:43:48;;;;;;;9.83;4.77;;;;;;;;;;5054724;28;20406;-67
2022/01/21 09:46:14;;;;;;;12.50;4.07;;;;;;;;;;5055034;28;20440;-67
2022/01/21 09:48:53;;;;;;;10.10;4.20;;;;;;;;;;5053897;28;20452;-65
2022/01/21 09:51:20;;;;;;;7.30;4.03;;;;;;;;;;5055768;28;20454;-67
2022/01/21 09:53:46;;;;;;;10.18;3.80;;;;;;;;;;5053939;28;20959;-67
2022/01/21 09:56:14;;;;;;;9.10;4.13;;;;;;;;;;5054881;28;20222;-68
2022/01/21 09:58:40;;;;;;;9.27;3.70;;;;;;;;;;5054529;28;20725;-66
2022/01/21 10:01:06;;;;;;;15.80;3.77;;;;;;;;;;5054874;28;20402;-69
2022/01/21 10:03:33;;;;;;;8.57;3.47;;;;;;;;;;5054755;28;20489;-67
2022/01/21 10:05:59;;;;;;;6.57;3.33;;;;;;;;;;5054588;28;20438;-68
2022/01/21 10:08:25;;;;;;;18.67;3.47;;;;;;;;;;5054539;28;21080;-66
2022/01/21 10:10:51;;;;;;;14.67;3.93;;;;;;;;;;5054789;28;20405;-67
2022/01/21 10:13:19;;;;;;;10.83;3.70;;;;;;;;;;5054566;28;20446;-67
2022/01/21 10:15:45;;;;;;;8.27;4.33;;;;;;;;;;5053194;28;20420;-66
2022/01/21 10:18:16;;;;;;;15.03;5.60;;;;;;;;;;5054163;28;20449;-67
2022/01/21 10:20:56;;;;;;;11.87;3.63;;;;;;;;;;5054040;28;20400;-66
2022/01/21 10:23:22;;;;;;;9.33;3.70;;;;;;;;;;5053035;28;20416;-68
2022/01/21 10:25:56;;;;;;;8.70;3.40;;;;;;;;;;5054243;28;20495;-67
2022/01/21 10:28:24;;;;;;;12.30;5.30;;;;;;;;;;5053784;28;20454;-68
2022/01/21 10:31:03;;;;;;;7.00;4.17;;;;;;;;;;5053824;28;20945;-67
2022/01/21 10:33:29;;;;;;;8.60;4.40;;;;;;;;;;5054189;28;20847;-67
2022/01/21 10:36:10;;;;;;;12.67;4.83;;;;;;;;;;5053794;28;20473;-67
2022/01/21 10:38:44;;;;;;;8.20;4.07;;;;;;;;;;5052203;28;20445;-67
2022/01/21 10:41:11;;;;;;;9.57;4.03;;;;;;;;;;5053230;28;20920;-67
2022/01/21 10:43:38;;;;;;;7.07;3.40;;;;;;;;;;5053503;28;20428;-68
2022/01/21 10:46:04;;;;;;;8.37;3.83;;;;;;;;;;5052502;28;20438;-69
2022/01/21 10:48:31;;;;;;;6.63;4.53;;;;;;;;;;5053431;28;20449;-68
2022/01/21 10:51:17;;;;;;;14.33;4.90;;;;;;;;;;5053051;28;20484;-67
2022/01/21 10:53:46;;;;;;;13.67;4.60;;;;;;;;;;5053791;28;20402;-67
2022/01/21 10:56:15;;;;;;;8.07;4.50;;;;;;;;;;5049525;28;20500;-68
2022/01/21 10:58:43;;;;;;;9.53;4.40;;;;;;;;;;5054143;28;20405;-67
2022/01/21 11:01:13;;;;;;;10.27;4.47;;;;;;;;;;5053411;28;20417;-68
2022/01/21 11:03:56;;;;;;;7.73;4.03;;;;;;;;;;5053178;28;20462;-66
2022/01/21 11:06:25;;;;;;;12.63;5.33;;;;;;;;;;5052876;28;20421;-67
2022/01/21 11:08:51;;;;;;;5.67;4.40;;;;;;;;;;5053563;28;20402;-69
2022/01/21 11:11:22;;;;;;;8.82;3.50;;;;;;;;;;5052444;28;20410;-69
2022/01/21 11:13:48;;;;;;;7.93;3.60;;;;;;;;;;5052366;28;20516;-55
2022/01/21 11:16:16;;;;;;;10.43;3.60;;;;;;;;;;5053445;28;20823;-53
2022/01/21 11:19:06;;;;;;;8.03;3.70;;;;;;;;;;5053052;28;20902;-67
2022/01/21 11:21:46;;;;;;;9.23;3.97;;;;;;;;;;5051325;28;20510;-69
2022/01/21 11:24:13;;;;;;;8.47;3.30;;;;;;;;;;5053551;28;20386;-69
2022/01/21 11:26:39;;;;;;;8.43;3.10;;;;;;;;;;5050600;28;20493;-68
2022/01/21 11:29:06;;;;;;;7.67;4.63;;;;;;;;;;5053417;28;20413;-69
2022/01/21 11:31:33;;;;;;;10.65;3.97;;;;;;;;;;5052171;28;20482;-59
2022/01/21 11:33:59;;;;;;;12.10;4.50;;;;;;;;;;5051975;28;20501;-55
2022/01/21 11:36:26;;;;;;;9.37;3.80;;;;;;;;;;5049380;28;20441;-57
2022/01/21 11:38:55;;;;;;;10.17;3.07;;;;;;;;;;5052836;28;20394;-56
2022/01/21 11:41:22;;;;;;;9.70;4.30;;;;;;;;;;5051239;28;20397;-57
2022/01/21 11:43:51;;;;;;;6.07;3.27;;;;;;;;;;5051435;28;20418;-60
2022/01/21 11:48:52;;;;;;;6.33;3.50;;;;;;;;;;5052068;28;20413;-70
2022/01/21 11:51:18;;;;;;;6.50;2.97;;;;;;;;;;5052601;28;20406;-68
2022/01/21 11:53:44;;;;;;;14.63;3.10;;;;;;;;;;5052123;28;20448;-67
2022/01/21 11:56:29;;;;;;;8.17;3.30;;;;;;;;;;5052142;28;20437;-67
2022/01/21 11:59:02;;;;;;;8.53;4.23;;;;;;;;;;5052528;28;20488;-67
2022/01/21 12:01:33;;;;;;;9.03;3.10;;;;;;;;;;5051669;28;20446;-68
2022/01/21 12:04:00;;;;;;;6.07;3.43;;;;;;;;;;5052124;28;20390;-66
2022/01/21 12:06:33;;;;;;;5.17;2.50;;;;;;;;;;5052268;28;20443;-66
2022/01/21 12:09:00;;;;;;;11.93;2.92;;;;;;;;;;5050627;28;20465;-66
2022/01/21 12:11:31;;;;;;;5.70;2.33;;;;;;;;;;5051653;28;20416;-62
2022/01/21 12:13:57;;;;;;;8.30;2.87;;;;;;;;;;5052053;28;20423;-66
2022/01/21 12:17:02;;;;;;;11.80;2.90;;;;;;;;;;5052274;28;20449;-65
2022/01/21 12:19:35;;;;;;;8.32;3.15;;;;;;;;;;5019295;28;20417;-69
2022/01/21 12:22:12;;;;;;;9.97;2.93;;;;;;;;;;5032811;28;20149;-69
2022/01/21 12:24:54;;;;;;;11.80;3.57;;;;;;;;;;5048886;28;20479;-68
2022/01/21 12:27:21;;;;;;;8.52;2.70;;;;;;;;;;5051010;28;20766;-67
2022/01/21 12:29:48;;;;;;;9.53;3.30;;;;;;;;;;5050182;28;20417;-66
2022/01/21 12:32:21;;;;;;;10.67;2.80;;;;;;;;;;5052162;28;20926;-67
2022/01/21 12:34:59;;;;;;;12.27;3.03;;;;;;;;;;5052195;28;20390;-67
2022/01/21 12:37:38;;;;;;;5.30;2.83;;;;;;;;;;5032353;28;20425;-66
2022/01/21 12:40:05;;;;;;;13.23;4.83;;;;;;;;;;5032703;28;20383;-68
2022/01/21 12:42:38;;;;;;;4.53;3.20;;;;;;;;;;5047636;28;20467;-67
2022/01/21 12:45:07;;;;;;;7.37;3.23;;;;;;;;;;5052285;28;20374;-60
2022/01/21 12:47:35;;;;;;;6.37;3.53;;;;;;;;;;5054966;28;20449;-67
2022/01/21 12:50:11;;;;;;;10.30;4.13;;;;;;;;;;5056549;28;20394;-69
2022/01/21 12:52:48;;;;;;;6.07;3.57;;;;;;;;;;5055725;28;20964;-69
2022/01/21 12:58:10;;;;;;;6.63;2.93;;;;;;;;;;5069633;28;20417;-70
2022/01/21 13:00:37;;;;;;;5.33;3.80;;;;;;;;;;5056073;28;20425;-71
2022/01/21 13:03:08;;;;;;;7.50;3.63;;;;;;;;;;5056076;28;20897;-69
2022/01/21 13:05:39;;;;;;;6.50;3.20;;;;;;;;;;5055619;28;20721;-69
2022/01/21 13:08:14;;;;;;;5.33;2.80;;;;;;;;;;5055996;28;20444;-71
2022/01/21 13:10:41;;;;;;;5.90;3.03;;;;;;;;;;5056006;28;20410;-66
2022/01/21 13:15:39;;;;;;;7.87;2.83;;;;;;;;;;5052644;28;20424;-58
2022/01/21 13:18:09;;;;;;;13.80;3.90;;;;;;;;;;5055550;28;20410;-58
2022/01/21 13:20:37;;;;;;;5.40;2.90;;;;;;;;;;5055180;28;20481;-57
2022/01/21 13:23:03;;;;;;;9.73;3.30;;;;;;;;;;5054859;28;20469;-58
2022/01/21 13:25:31;;;;;;;5.43;2.57;;;;;;;;;;5054618;28;20179;-67
2022/01/21 13:27:58;;;;;;;11.33;3.20;;;;;;;;;;5055716;28;20449;-67
2022/01/21 13:30:27;;;;;;;8.10;3.80;;;;;;;;;;5055170;28;20425;-67
2022/01/21 13:33:01;;;;;;;10.20;3.00;;;;;;;;;;5053972;28;20409;-67
2022/01/21 13:35:28;;;;;;;5.53;3.33;;;;;;;;;;5054846;28;20498;-67
2022/01/21 13:38:02;;;;;;;4.83;2.83;;;;;;;;;;5051847;28;20446;-68
2022/01/21 13:40:30;;;;;;;12.00;3.63;;;;;;;;;;5062488;28;20559;-67
2022/01/21 13:43:06;;;;;;;5.70;3.17;;;;;;;;;;5053815;28;20488;-68
2022/01/21 13:45:32;;;;;;;9.40;3.00;;;;;;;;;;5054725;28;20558;-67
2022/01/21 13:48:02;;;;;;;5.57;4.20;;;;;;;;;;5054003;28;20458;-67
2022/01/21 13:50:30;;;;;;;5.30;3.40;;;;;;;;;;5049322;28;20774;-68
2022/01/21 13:53:00;;;;;;;8.37;3.07;;;;;;;;;;5054883;28;20409;-68
2022/01/21 13:55:43;;;;;;;5.20;3.20;;;;;;;;;;5054653;28;20917;-68
2022/01/21 13:58:10;;;;;;;9.47;3.80;;;;;;;;;;5054118;28;20435;-69
2022/01/21 14:00:41;;;;;;;8.60;3.33;;;;;;;;;;5055994;28;20406;-68
2022/01/21 14:03:15;;;;;;;7.20;2.90;;;;;;;;;;5065120;28;20478;-67
2022/01/21 14:06:00;;;;;;;6.27;3.23;;;;;;;;;;5054297;28;20420;-66
2022/01/21 14:08:44;;;;;;;13.60;3.00;;;;;;;;;;5059584;28;20444;-65
2022/01/21 14:11:14;;;;;;;6.90;3.10;;;;;;;;;;5074320;28;20488;-66
2022/01/21 14:13:59;;;;;;;10.60;3.27;;;;;;;;;;5054221;28;20467;-66
2022/01/21 14:16:26;;;;;;;12.13;3.33;;;;;;;;;;5053955;28;20426;-64
2022/01/21 14:18:53;;;;;;;9.73;2.90;;;;;;;;;;5053547;28;20922;-65
2022/01/21 14:21:22;;;;;;;9.33;3.23;;;;;;;;;;5053656;28;20979;-65
2022/01/21 14:23:49;;;;;;;9.27;2.73;;;;;;;;;;5053865;28;20488;-64
2022/01/21 14:26:17;;;;;;;7.63;2.77;;;;;;;;;;5053693;28;20499;-60
2022/01/21 14:28:59;;;;;;;7.13;2.60;;;;;;;;;;5052315;28;20431;-57
2022/01/21 14:31:36;;;;;;;14.43;3.50;;;;;;;;;;5053890;28;20259;-58
2022/01/21 14:34:22;;;;;;;11.30;3.33;;;;;;;;;;5034760;28;20477;-56
2022/01/21 14:37:03;;;;;;;8.90;3.17;;;;;;;;;;5051020;28;20525;-57
2022/01/21 14:39:33;;;;;;;8.97;2.70;;;;;;;;;;5053473;28;20394;-58
2022/01/21 14:41:59;;;;;;;4.57;2.57;;;;;;;;;;5054083;28;20472;-53
2022/01/21 14:44:41;;;;;;;12.57;3.37;;;;;;;;;;5053720;28;20398;-56
2022/01/21 14:47:21;;;;;;;7.93;2.80;;;;;;;;;;5053739;28;21000;-57
2022/01/21 14:49:56;;;;;;;8.90;3.07;;;;;;;;;;5053743;28;20398;-59
2022/01/21 14:52:43;;;;;;;7.80;2.80;;;;;;;;;;5053819;28;20382;-59
2022/01/21 14:55:17;;;;;;;5.53;3.10;;;;;;;;;;5053576;28;20406;-59
2022/01/21 14:57:49;;;;;;;4.00;2.80;;;;;;;;;;5053196;28;20444;-58
2022/01/21 15:00:21;;;;;;;5.60;3.10;;;;;;;;;;5053530;28;20398;-58
2022/01/21 15:02:47;;;;;;;10.57;3.30;;;;;;;;;;5053960;28;20385;-58
2022/01/21 15:05:14;;;;;;;7.27;3.90;;;;;;;;;;5053314;28;20484;-56
2022/01/21 15:07:42;;;;;;;6.90;2.63;;;;;;;;;;5053155;28;20781;-57
2022/01/21 15:10:22;;;;;;;6.97;3.27;;;;;;;;;;5052299;28;20401;-59
2022/01/21 15:15:47;;;;;;;8.20;3.67;;;;;;;;;;5053294;28;20469;-57
2022/01/21 15:18:14;;;;;;;10.30;3.50;;;;;;;;;;5053346;28;20405;-60
2022/01/21 15:20:41;;;;;;;11.13;4.63;;;;;;;;;;5052964;28;20433;-56
2022/01/21 15:23:08;;;;;;;8.70;3.97;;;;;;;;;;5053314;28;20827;-60
2022/01/21 15:25:35;;;;;;;5.13;3.30;;;;;;;;;;5052802;28;21047;-59
2022/01/21 15:28:01;;;;;;;9.00;4.77;;;;;;;;;;5053097;28;20960;-60
2022/01/21 15:30:28;;;;;;;7.00;2.90;;;;;;;;;;5052781;28;20787;-61
2022/01/21 15:32:55;;;;;;;10.53;3.67;;;;;;;;;;5052871;28;20418;-60
2022/01/21 15:35:22;;;;;;;11.45;5.18;;;;;;;;;;5052833;28;20416;-65
2022/01/21 15:37:48;;;;;;;8.53;3.63;;;;;;;;;;5052666;28;20171;-66
2022/01/21 15:40:15;;;;;;;5.80;3.30;;;;;;;;;;5052266;28;20461;-68
2022/01/21 15:42:44;;;;;;;9.43;3.97;;;;;;;;;;5052466;28;20426;-64